createdAt,value
2019-02-15T00:00:50.317Z,1024
2019-02-15T00:01:52.444Z,1024
2019-02-15T00:02:54.558Z,1024
2019-02-15T00:03:56.753Z,1024
2019-02-15T00:04:58.907Z,1024
2019-02-15T00:06:01.013Z,1024.1
2019-02-15T00:07:03.143Z,1024.1
2019-02-15T00:08:05.278Z,1024.1
2019-02-15T00:09:07.456Z,1024.1
2019-02-15T00:10:09.563Z,1024.1
2019-02-15T00:11:12.362Z,1024.1
2019-02-15T00:12:14.475Z,1024.1
2019-02-15T00:13:16.588Z,1024.1
2019-02-15T00:14:18.710Z,1024.1
2019-02-15T00:15:20.815Z,1024.1
2019-02-15T00:16:22.928Z,1024.1
2019-02-15T00:17:25.060Z,1024.1
2019-02-15T00:18:27.178Z,1024.1
2019-02-15T00:19:31.515Z,1024
2019-02-15T00:20:33.964Z,1024
2019-02-15T00:21:36.078Z,1024.1
2019-02-15T00:22:38.467Z,1024
2019-02-15T00:23:40.594Z,1024
2019-02-15T00:24:42.718Z,1024
2019-02-15T00:25:44.830Z,1024.1
2019-02-15T00:26:47.015Z,1024
2019-02-15T00:27:49.132Z,1024
2019-02-15T00:28:51.244Z,1024.1
2019-02-15T00:29:53.379Z,1024
2019-02-15T00:30:55.481Z,1024
2019-02-15T00:31:57.609Z,1024
2019-02-15T00:32:59.717Z,1024
2019-02-15T00:34:02.511Z,1024
2019-02-15T00:35:04.621Z,1024
2019-02-15T00:36:06.752Z,1024
2019-02-15T00:37:08.878Z,1024
2019-02-15T00:38:11.276Z,1024.1
2019-02-15T00:39:13.418Z,1024
2019-02-15T00:40:15.533Z,1024.1
2019-02-15T00:41:17.660Z,1024
2019-02-15T00:42:19.774Z,1024
2019-02-15T00:43:22.811Z,1024
2019-02-15T00:44:24.975Z,1024
2019-02-15T00:45:27.378Z,1024
2019-02-15T00:46:29.504Z,1024
2019-02-15T00:47:31.595Z,1024
2019-02-15T00:48:33.721Z,1024
2019-02-15T00:49:35.854Z,1023.9
2019-02-15T00:50:37.977Z,1023.9
2019-02-15T00:51:40.381Z,1023.9
2019-02-15T00:52:42.516Z,1023.9
2019-02-15T00:53:44.625Z,1023.9
2019-02-15T00:54:47.014Z,1023.9
2019-02-15T00:55:49.132Z,1024
2019-02-15T00:56:51.268Z,1023.9
2019-02-15T00:57:53.692Z,1024
2019-02-15T00:58:55.808Z,1024
2019-02-15T00:59:57.959Z,1024
2019-02-15T01:01:00.068Z,1024
2019-02-15T01:02:02.223Z,1024
2019-02-15T01:03:04.359Z,1024
2019-02-15T01:04:06.474Z,1024
2019-02-15T01:05:08.609Z,1024
2019-02-15T01:06:10.738Z,1024
2019-02-15T01:07:12.875Z,1024
2019-02-15T01:08:14.987Z,1024
2019-02-15T01:09:17.116Z,1023.9
2019-02-15T01:10:19.247Z,1024
2019-02-15T01:11:21.351Z,1024
2019-02-15T01:12:23.497Z,1024
2019-02-15T01:13:31.428Z,1024
2019-02-15T01:14:33.562Z,1024
2019-02-15T01:15:35.675Z,1024
2019-02-15T01:16:37.870Z,1024
2019-02-15T01:17:40.270Z,1024
2019-02-15T01:18:42.389Z,1024
2019-02-15T01:19:44.512Z,1024.1
2019-02-15T01:20:46.615Z,1024
2019-02-15T01:21:48.740Z,1024
2019-02-15T01:22:50.854Z,1024
2019-02-15T01:23:52.962Z,1024
2019-02-15T01:24:55.082Z,1024
2019-02-15T01:25:57.217Z,1024
2019-02-15T01:26:59.336Z,1024
2019-02-15T01:28:01.462Z,1024
2019-02-15T01:29:03.588Z,1024
2019-02-15T01:30:05.696Z,1024
2019-02-15T01:31:07.841Z,1024
2019-02-15T01:32:09.973Z,1024
2019-02-15T01:33:12.067Z,1023.9
2019-02-15T01:34:14.185Z,1024
2019-02-15T01:35:16.690Z,1024
2019-02-15T01:36:18.792Z,1024
2019-02-15T01:37:20.937Z,1024
2019-02-15T01:38:23.043Z,1024
2019-02-15T01:39:25.186Z,1024
2019-02-15T01:40:27.296Z,1024
2019-02-15T01:41:29.424Z,1024
2019-02-15T01:42:31.839Z,1024
2019-02-15T01:43:40.541Z,1024
2019-02-15T01:44:42.709Z,1024
2019-02-15T01:45:45.088Z,1024
2019-02-15T01:46:47.519Z,1024
2019-02-15T01:47:49.929Z,1024
2019-02-15T01:48:52.054Z,1024
2019-02-15T01:49:54.150Z,1024
2019-02-15T01:50:56.311Z,1024
2019-02-15T01:51:58.431Z,1023.9
2019-02-15T01:53:00.836Z,1023.9
2019-02-15T01:54:03.249Z,1023.9
2019-02-15T01:55:05.367Z,1024
2019-02-15T01:56:07.531Z,1024
2019-02-15T01:57:09.962Z,1023.9
2019-02-15T01:58:12.087Z,1023.9
2019-02-15T01:59:14.480Z,1023.9
2019-02-15T02:00:16.614Z,1023.9
2019-02-15T02:01:18.722Z,1023.9
2019-02-15T02:02:21.126Z,1023.9
2019-02-15T02:03:23.257Z,1023.9
2019-02-15T02:04:25.368Z,1023.9
2019-02-15T02:05:27.488Z,1024
2019-02-15T02:06:29.635Z,1024
2019-02-15T02:07:31.750Z,1023.9
2019-02-15T02:08:33.869Z,1024
2019-02-15T02:09:36.272Z,1023.9
2019-02-15T02:10:38.702Z,1023.9
2019-02-15T02:11:40.827Z,1023.9
2019-02-15T02:12:42.950Z,1023.9
2019-02-15T02:13:50.162Z,1023.9
2019-02-15T02:14:52.345Z,1023.9
2019-02-15T02:15:54.457Z,1023.9
2019-02-15T02:16:56.578Z,1024
2019-02-15T02:17:58.725Z,1023.9
2019-02-15T02:19:01.129Z,1024
2019-02-15T02:20:03.547Z,1023.9
2019-02-15T02:21:06.063Z,1023.9
2019-02-15T02:22:08.541Z,1024
2019-02-15T02:23:11.205Z,1024
2019-02-15T02:24:13.336Z,1024
2019-02-15T02:25:15.735Z,1023.9
2019-02-15T02:26:17.872Z,1023.9
2019-02-15T02:27:20.004Z,1024
2019-02-15T02:28:22.129Z,1024
2019-02-15T02:29:24.253Z,1023.9
2019-02-15T02:30:26.458Z,1023.9
2019-02-15T02:31:29.262Z,1024
2019-02-15T02:32:31.993Z,1024
2019-02-15T02:33:34.425Z,1024
2019-02-15T02:34:36.537Z,1024
2019-02-15T02:35:38.665Z,1024
2019-02-15T02:36:40.791Z,1024
2019-02-15T02:37:43.210Z,1023.9
2019-02-15T02:38:45.353Z,1023.9
2019-02-15T02:39:47.786Z,1023.9
2019-02-15T02:40:50.602Z,1023.9
2019-02-15T02:41:52.714Z,1023.9
2019-02-15T02:42:54.838Z,1023.9
2019-02-15T02:44:00.229Z,1023.9
2019-02-15T02:45:02.378Z,1023.9
2019-02-15T02:46:04.501Z,1023.9
2019-02-15T02:47:06.635Z,1024
2019-02-15T02:48:09.331Z,1024
2019-02-15T02:49:11.904Z,1024
2019-02-15T02:50:14.330Z,1024
2019-02-15T02:51:16.784Z,1024
2019-02-15T02:52:19.183Z,1024
2019-02-15T02:53:21.372Z,1024
2019-02-15T02:54:24.101Z,1024
2019-02-15T02:55:26.930Z,1024
2019-02-15T02:56:29.038Z,1024
2019-02-15T02:57:31.473Z,1024
2019-02-15T02:58:33.583Z,1024
2019-02-15T02:59:36.127Z,1023.9
2019-02-15T03:00:39.070Z,1024
2019-02-15T03:01:41.892Z,1023.9
2019-02-15T03:02:44.036Z,1024
2019-02-15T03:03:46.169Z,1023.9
2019-02-15T03:04:48.287Z,1024
2019-02-15T03:05:50.702Z,1024
2019-02-15T03:06:52.923Z,1024
2019-02-15T03:07:55.722Z,1024
2019-02-15T03:08:58.154Z,1024
2019-02-15T03:10:01.080Z,1024
2019-02-15T03:11:03.605Z,1023.9
2019-02-15T03:12:05.728Z,1023.9
2019-02-15T03:13:08.147Z,1023.9
2019-02-15T03:14:12.433Z,1024
2019-02-15T03:15:14.599Z,1023.9
2019-02-15T03:16:17.009Z,1023.9
2019-02-15T03:17:19.127Z,1023.9
2019-02-15T03:18:21.562Z,1023.9
2019-02-15T03:19:23.713Z,1023.9
2019-02-15T03:20:31.795Z,1023.9
2019-02-15T03:21:34.476Z,1023.9
2019-02-15T03:22:37.027Z,1023.9
2019-02-15T03:23:40.061Z,1023.9
2019-02-15T03:24:42.753Z,1023.9
2019-02-15T03:25:44.898Z,1023.9
2019-02-15T03:26:47.056Z,1023.9
2019-02-15T03:27:49.479Z,1023.9
2019-02-15T03:28:52.023Z,1023.9
2019-02-15T03:29:54.427Z,1023.9
2019-02-15T03:30:56.885Z,1023.9
2019-02-15T03:31:59.635Z,1023.9
2019-02-15T03:33:02.379Z,1023.9
2019-02-15T03:34:05.305Z,1023.9
2019-02-15T03:35:07.763Z,1023.9
2019-02-15T03:36:10.195Z,1023.9
2019-02-15T03:37:12.941Z,1023.9
2019-02-15T03:38:15.395Z,1023.9
2019-02-15T03:39:17.913Z,1024
2019-02-15T03:40:20.040Z,1023.9
2019-02-15T03:41:22.745Z,1023.9
2019-02-15T03:42:24.879Z,1023.9
2019-02-15T03:43:27.320Z,1023.9
2019-02-15T03:44:29.570Z,1023.9
2019-02-15T03:45:31.998Z,1023.9
2019-02-15T03:46:34.175Z,1023.8
2019-02-15T03:47:36.303Z,1023.8
2019-02-15T03:48:38.738Z,1023.8
2019-02-15T03:49:41.550Z,1023.8
2019-02-15T03:50:44.336Z,1023.8
2019-02-15T03:51:46.469Z,1023.8
2019-02-15T03:52:48.907Z,1023.8
2019-02-15T03:53:51.055Z,1023.8
2019-02-15T03:54:53.525Z,1023.8
2019-02-15T03:55:56.054Z,1023.8
2019-02-15T03:56:58.202Z,1023.8
2019-02-15T03:58:00.325Z,1023.8
2019-02-15T03:59:03.204Z,1023.8
2019-02-15T04:00:05.355Z,1023.7
2019-02-15T04:01:07.780Z,1023.8
2019-02-15T04:02:10.285Z,1023.7
2019-02-15T04:03:13.186Z,1023.8
2019-02-15T04:04:15.308Z,1023.7
2019-02-15T04:05:17.847Z,1023.7
2019-02-15T04:06:19.983Z,1023.7
2019-02-15T04:07:22.107Z,1023.8
2019-02-15T04:08:24.241Z,1023.7
2019-02-15T04:09:26.973Z,1023.7
2019-02-15T04:10:29.084Z,1023.7
2019-02-15T04:11:31.893Z,1023.7
2019-02-15T04:12:34.025Z,1023.7
2019-02-15T04:13:36.135Z,1023.8
2019-02-15T04:14:38.644Z,1023.7
2019-02-15T04:15:41.082Z,1023.8
2019-02-15T04:16:44.381Z,1023.7
2019-02-15T04:17:46.784Z,1023.7
2019-02-15T04:18:48.933Z,1023.8
2019-02-15T04:19:51.048Z,1023.8
2019-02-15T04:20:53.187Z,1023.7
2019-02-15T04:21:55.637Z,1023.7
2019-02-15T04:22:57.782Z,1023.8
2019-02-15T04:24:00.193Z,1023.7
2019-02-15T04:25:02.630Z,1023.7
2019-02-15T04:26:05.160Z,1023.8
2019-02-15T04:27:07.639Z,1023.8
2019-02-15T04:28:09.789Z,1023.8
2019-02-15T04:29:12.419Z,1023.8
2019-02-15T04:30:14.840Z,1023.8
2019-02-15T04:31:16.982Z,1023.8
2019-02-15T04:32:19.649Z,1023.8
2019-02-15T04:33:22.131Z,1023.8
2019-02-15T04:34:24.555Z,1023.8
2019-02-15T04:35:27.249Z,1023.8
2019-02-15T04:36:29.362Z,1023.8
2019-02-15T04:37:31.493Z,1023.8
2019-02-15T04:38:33.623Z,1023.7
2019-02-15T04:39:35.737Z,1023.7
2019-02-15T04:40:38.556Z,1023.7
2019-02-15T04:41:40.709Z,1023.7
2019-02-15T04:42:43.219Z,1023.8
2019-02-15T04:43:46.189Z,1023.8
2019-02-15T04:44:48.864Z,1023.8
2019-02-15T04:45:51.296Z,1023.8
2019-02-15T04:46:54.115Z,1023.8
2019-02-15T04:47:56.268Z,1023.8
2019-02-15T04:48:58.810Z,1023.8
2019-02-15T04:50:00.924Z,1023.8
2019-02-15T04:51:04.156Z,1023.8
2019-02-15T04:52:06.694Z,1023.8
2019-02-15T04:53:08.818Z,1023.8
2019-02-15T04:54:11.814Z,1023.8
2019-02-15T04:55:14.266Z,1023.7
2019-02-15T04:56:16.769Z,1023.8
2019-02-15T04:57:19.274Z,1023.8
2019-02-15T04:58:21.685Z,1023.7
2019-02-15T04:59:23.829Z,1023.7
2019-02-15T05:00:26.531Z,1023.8
2019-02-15T05:01:28.713Z,1023.8
2019-02-15T05:02:30.827Z,1023.8
2019-02-15T05:03:33.301Z,1023.8
2019-02-15T05:04:35.428Z,1023.8
2019-02-15T05:05:37.532Z,1023.8
2019-02-15T05:06:39.663Z,1023.8
2019-02-15T05:07:41.784Z,1023.8
2019-02-15T05:08:44.535Z,1023.8
2019-02-15T05:09:47.212Z,1023.8
2019-02-15T05:10:49.664Z,1023.8
2019-02-15T05:11:52.087Z,1023.8
2019-02-15T05:12:54.207Z,1023.7
2019-02-15T05:13:56.350Z,1023.7
2019-02-15T05:14:58.752Z,1023.7
2019-02-15T05:16:01.157Z,1023.7
2019-02-15T05:17:04.001Z,1023.7
2019-02-15T05:18:06.132Z,1023.7
2019-02-15T05:19:08.288Z,1023.7
2019-02-15T05:20:10.787Z,1023.7
2019-02-15T05:21:13.572Z,1023.7
2019-02-15T05:22:15.691Z,1023.7
2019-02-15T05:23:17.800Z,1023.7
2019-02-15T05:24:19.929Z,1023.7
2019-02-15T05:25:22.057Z,1023.7
2019-02-15T05:26:24.196Z,1023.7
2019-02-15T05:27:26.314Z,1023.7
2019-02-15T05:28:28.444Z,1023.7
2019-02-15T05:29:30.821Z,1023.7
2019-02-15T05:30:33.262Z,1023.6
2019-02-15T05:31:35.698Z,1023.6
2019-02-15T05:32:37.847Z,1023.6
2019-02-15T05:33:39.963Z,1023.6
2019-02-15T05:34:42.394Z,1023.6
2019-02-15T05:35:44.810Z,1023.5
2019-02-15T05:36:47.239Z,1023.6
2019-02-15T05:37:49.664Z,1023.5
2019-02-15T05:38:52.103Z,1023.6
2019-02-15T05:39:54.566Z,1023.6
2019-02-15T05:40:57.003Z,1023.6
2019-02-15T05:41:59.687Z,1023.5
2019-02-15T05:43:02.487Z,1023.6
2019-02-15T05:44:05.240Z,1023.6
2019-02-15T05:45:07.654Z,1023.6
2019-02-15T05:46:09.803Z,1023.6
2019-02-15T05:47:12.312Z,1023.6
2019-02-15T05:48:15.103Z,1023.6
2019-02-15T05:49:17.542Z,1023.6
2019-02-15T05:50:19.969Z,1023.5
2019-02-15T05:51:22.358Z,1023.6
2019-02-15T05:52:24.869Z,1023.6
2019-02-15T05:53:27.388Z,1023.6
2019-02-15T05:54:29.497Z,1023.6
2019-02-15T05:55:31.910Z,1023.6
2019-02-15T05:56:34.039Z,1023.5
2019-02-15T05:57:36.541Z,1023.6
2019-02-15T05:58:38.664Z,1023.6
2019-02-15T05:59:41.489Z,1023.7
2019-02-15T06:00:43.993Z,1023.6
2019-02-15T06:01:46.148Z,1023.7
2019-02-15T06:02:48.514Z,1023.6
2019-02-15T06:03:50.656Z,1023.6
2019-02-15T06:04:53.078Z,1023.6
2019-02-15T06:05:55.919Z,1023.7
2019-02-15T06:06:59.581Z,1023.6
2019-02-15T06:08:01.712Z,1023.6
2019-02-15T06:09:04.527Z,1023.6
2019-02-15T06:10:06.975Z,1023.6
2019-02-15T06:11:09.753Z,1023.6
2019-02-15T06:12:13.134Z,1023.6
2019-02-15T06:13:15.954Z,1023.6
2019-02-15T06:14:18.385Z,1023.6
2019-02-15T06:15:20.505Z,1023.6
2019-02-15T06:16:22.907Z,1023.6
2019-02-15T06:17:25.042Z,1023.6
2019-02-15T06:18:27.174Z,1023.7
2019-02-15T06:19:29.312Z,1023.6
2019-02-15T06:20:31.783Z,1023.6
2019-02-15T06:21:33.909Z,1023.7
2019-02-15T06:22:36.628Z,1023.7
2019-02-15T06:23:39.061Z,1023.7
2019-02-15T06:24:41.181Z,1023.7
2019-02-15T06:25:43.288Z,1023.7
2019-02-15T06:26:45.752Z,1023.7
2019-02-15T06:27:48.143Z,1023.7
2019-02-15T06:28:50.265Z,1023.7
2019-02-15T06:29:53.098Z,1023.7
2019-02-15T06:30:55.221Z,1023.7
2019-02-15T06:31:57.714Z,1023.6
2019-02-15T06:32:59.852Z,1023.7
2019-02-15T06:34:01.966Z,1023.7
2019-02-15T06:35:04.072Z,1023.7
2019-02-15T06:36:06.605Z,1023.7
2019-02-15T06:37:08.697Z,1023.6
2019-02-15T06:38:10.821Z,1023.7
2019-02-15T06:39:12.943Z,1023.7
2019-02-15T06:40:15.076Z,1023.8
2019-02-15T06:41:17.467Z,1023.7
2019-02-15T06:42:20.275Z,1023.7
2019-02-15T06:43:22.702Z,1023.7
2019-02-15T06:44:24.814Z,1023.7
2019-02-15T06:45:26.966Z,1023.7
2019-02-15T06:46:29.097Z,1023.8
2019-02-15T06:47:31.208Z,1023.8
2019-02-15T06:48:33.598Z,1023.8
2019-02-15T06:49:35.728Z,1023.7
2019-02-15T06:50:37.866Z,1023.8
2019-02-15T06:51:40.287Z,1023.8
2019-02-15T06:52:42.430Z,1023.8
2019-02-15T06:53:44.825Z,1023.8
2019-02-15T06:54:47.284Z,1023.8
2019-02-15T06:55:49.546Z,1023.8
2019-02-15T06:56:52.033Z,1023.8
2019-02-15T06:57:54.152Z,1023.9
2019-02-15T06:58:56.662Z,1023.8
2019-02-15T06:59:58.773Z,1023.8
2019-02-15T07:01:01.178Z,1023.9
2019-02-15T07:02:03.679Z,1023.9
2019-02-15T07:03:06.075Z,1023.8
2019-02-15T07:04:08.182Z,1023.8
2019-02-15T07:05:10.309Z,1023.9
2019-02-15T07:06:12.410Z,1023.8
2019-02-15T07:07:15.208Z,1023.8
2019-02-15T07:08:17.622Z,1023.9
2019-02-15T07:09:20.044Z,1023.9
2019-02-15T07:10:22.458Z,1023.9
2019-02-15T07:11:24.570Z,1023.9
2019-02-15T07:12:26.690Z,1023.9
2019-02-15T07:13:29.075Z,1023.9
2019-02-15T07:14:31.198Z,1023.9
2019-02-15T07:15:34.625Z,1023.9
2019-02-15T07:16:36.744Z,1023.9
2019-02-15T07:17:39.137Z,1023.9
2019-02-15T07:18:41.275Z,1024
2019-02-15T07:19:44.149Z,1024
2019-02-15T07:20:46.577Z,1024
2019-02-15T07:21:49.318Z,1024
2019-02-15T07:22:51.748Z,1024
2019-02-15T07:23:53.859Z,1024
2019-02-15T07:24:55.982Z,1024
2019-02-15T07:25:58.487Z,1024
2019-02-15T07:27:01.170Z,1024
2019-02-15T07:28:03.307Z,1024
2019-02-15T07:29:05.706Z,1024
2019-02-15T07:30:07.850Z,1024
2019-02-15T07:31:09.960Z,1024
2019-02-15T07:32:12.384Z,1024.1
2019-02-15T07:33:14.821Z,1024
2019-02-15T07:34:16.965Z,1024
2019-02-15T07:35:19.418Z,1023.9
2019-02-15T07:36:21.934Z,1024
2019-02-15T07:37:24.075Z,1024
2019-02-15T07:38:26.501Z,1023.9
2019-02-15T07:39:28.994Z,1023.9
2019-02-15T07:40:31.113Z,1023.9
2019-02-15T07:41:33.225Z,1023.9
2019-02-15T07:42:35.613Z,1024
2019-02-15T07:43:37.753Z,1024
2019-02-15T07:44:39.862Z,1024
2019-02-15T07:45:43.669Z,1023.9
2019-02-15T07:46:45.781Z,1023.9
2019-02-15T07:47:48.695Z,1023.9
2019-02-15T07:48:50.822Z,1023.9
2019-02-15T07:49:53.239Z,1023.9
2019-02-15T07:50:55.678Z,1023.9
2019-02-15T07:51:57.801Z,1023.9
2019-02-15T07:52:59.912Z,1023.9
2019-02-15T07:54:02.354Z,1023.9
2019-02-15T07:55:04.487Z,1023.9
2019-02-15T07:56:06.936Z,1024
2019-02-15T07:57:09.089Z,1023.9
2019-02-15T07:58:11.511Z,1023.9
2019-02-15T07:59:13.641Z,1024
2019-02-15T08:00:16.032Z,1024
2019-02-15T08:01:18.554Z,1024
2019-02-15T08:02:21.397Z,1024
2019-02-15T08:03:23.898Z,1024
2019-02-15T08:04:26.028Z,1024
2019-02-15T08:05:28.166Z,1024
2019-02-15T08:06:30.672Z,1024
2019-02-15T08:07:32.809Z,1024
2019-02-15T08:08:35.323Z,1024
2019-02-15T08:09:37.436Z,1024
2019-02-15T08:10:39.834Z,1024
2019-02-15T08:11:41.979Z,1024
2019-02-15T08:12:44.406Z,1024
2019-02-15T08:13:47.147Z,1024
2019-02-15T08:14:49.272Z,1024.1
2019-02-15T08:15:52.516Z,1024
2019-02-15T08:16:55.045Z,1024.1
2019-02-15T08:17:57.172Z,1024.1
2019-02-15T08:18:59.301Z,1024.2
2019-02-15T08:20:01.822Z,1024.2
2019-02-15T08:21:03.966Z,1024.2
2019-02-15T08:22:06.093Z,1024.2
2019-02-15T08:23:08.615Z,1024.1
2019-02-15T08:24:10.763Z,1024.2
2019-02-15T08:25:13.440Z,1024.2
2019-02-15T08:26:15.593Z,1024.2
2019-02-15T08:27:17.728Z,1024.2
2019-02-15T08:28:19.875Z,1024.2
2019-02-15T08:29:21.985Z,1024.2
2019-02-15T08:30:24.407Z,1024.2
2019-02-15T08:31:26.567Z,1024.2
2019-02-15T08:32:28.705Z,1024.2
2019-02-15T08:33:30.849Z,1024.2
2019-02-15T08:34:33.392Z,1024.2
2019-02-15T08:35:35.534Z,1024.2
2019-02-15T08:36:37.950Z,1024.2
2019-02-15T08:37:40.505Z,1024.1
2019-02-15T08:38:43.220Z,1024.1
2019-02-15T08:39:45.345Z,1024.1
2019-02-15T08:40:47.530Z,1024.1
2019-02-15T08:42:04.560Z,1024.1
2019-02-15T08:43:07.103Z,1024.1
2019-02-15T08:44:09.840Z,1024.1
2019-02-15T08:45:12.561Z,1024.1
2019-02-15T08:46:16.027Z,1024.1
2019-02-15T08:47:18.560Z,1024.1
2019-02-15T08:48:20.707Z,1024.1
2019-02-15T08:49:23.110Z,1024.2
2019-02-15T08:50:25.253Z,1024.2
2019-02-15T08:51:28.359Z,1024.1
2019-02-15T08:52:30.483Z,1024.2
2019-02-15T08:53:32.902Z,1024.2
2019-02-15T08:54:35.108Z,1024.2
2019-02-15T08:55:37.902Z,1024.2
2019-02-15T08:56:40.046Z,1024.2
2019-02-15T08:57:42.187Z,1024.2
2019-02-15T08:58:44.313Z,1024.3
2019-02-15T08:59:46.506Z,1024.3
2019-02-15T09:00:48.650Z,1024.2
2019-02-15T09:01:51.079Z,1024.3
2019-02-15T09:02:53.198Z,1024.2
2019-02-15T09:03:55.362Z,1024.2
2019-02-15T09:04:57.787Z,1024.2
2019-02-15T09:06:00.271Z,1024.2
2019-02-15T09:07:02.729Z,1024.2
2019-02-15T09:08:05.144Z,1024.3
2019-02-15T09:09:07.278Z,1024.2
2019-02-15T09:10:09.442Z,1024.2
2019-02-15T09:11:11.588Z,1024.2
2019-02-15T09:12:14.103Z,1024.3
2019-02-15T09:13:16.249Z,1024.3
2019-02-15T09:14:18.361Z,1024.3
2019-02-15T09:15:20.500Z,1024.2
2019-02-15T09:16:22.657Z,1024.2
2019-02-15T09:17:25.184Z,1024.3
2019-02-15T09:18:29.239Z,1024.3
2019-02-15T09:19:31.796Z,1024.3
2019-02-15T09:20:33.914Z,1024.3
2019-02-15T09:21:36.053Z,1024.3
2019-02-15T09:22:38.198Z,1024.3
2019-02-15T09:23:40.315Z,1024.3
2019-02-15T09:24:42.461Z,1024.3
2019-02-15T09:25:44.605Z,1024.3
2019-02-15T09:26:46.751Z,1024.3
2019-02-15T09:27:49.391Z,1024.3
2019-02-15T09:28:51.534Z,1024.3
2019-02-15T09:29:53.669Z,1024.3
2019-02-15T09:30:55.790Z,1024.3
2019-02-15T09:31:58.246Z,1024.3
2019-02-15T09:33:00.369Z,1024.3
2019-02-15T09:34:02.795Z,1024.4
2019-02-15T09:35:04.936Z,1024.4
2019-02-15T09:36:07.108Z,1024.4
2019-02-15T09:37:09.825Z,1024.4
2019-02-15T09:38:12.254Z,1024.4
2019-02-15T09:39:15.344Z,1024.4
2019-02-15T09:40:17.465Z,1024.4
2019-02-15T09:41:19.657Z,1024.4
2019-02-15T09:42:21.807Z,1024.4
2019-02-15T09:43:24.847Z,1024.4
2019-02-15T09:44:33.644Z,1024.5
2019-02-15T09:45:43.848Z,1024.4
2019-02-15T09:46:54.717Z,1024.4
2019-02-15T09:48:02.625Z,1024.4
2019-02-15T09:49:12.088Z,1024.4
2019-02-15T09:50:20.440Z,1024.4
2019-02-15T09:51:24.153Z,1024.4
2019-02-15T09:52:26.574Z,1024.4
2019-02-15T09:53:28.739Z,1024.4
2019-02-15T09:54:34.373Z,1024.4
2019-02-15T09:55:43.788Z,1024.5
2019-02-15T09:56:48.858Z,1024.5
2019-02-15T09:57:58.441Z,1024.5
2019-02-15T09:59:07.657Z,1024.5
2019-02-15T10:00:16.881Z,1024.5
2019-02-15T10:01:25.213Z,1024.5
2019-02-15T10:02:36.542Z,1024.5
2019-02-15T10:03:45.296Z,1024.5
2019-02-15T10:04:54.982Z,1024.5
2019-02-15T10:06:04.580Z,1024.4
2019-02-15T10:07:14.256Z,1024.4
2019-02-15T10:08:23.574Z,1024.4
2019-02-15T10:09:33.839Z,1024.4
2019-02-15T10:10:44.311Z,1024.4
2019-02-15T10:11:54.506Z,1024.5
2019-02-15T10:13:03.176Z,1024.4
2019-02-15T10:14:12.879Z,1024.5
2019-02-15T10:15:21.697Z,1024.5
2019-02-15T10:16:32.421Z,1024.5
2019-02-15T10:17:41.029Z,1024.5
2019-02-15T10:18:52.190Z,1024.5
2019-02-15T10:19:59.680Z,1024.5
2019-02-15T10:21:10.531Z,1024.5
2019-02-15T10:22:20.786Z,1024.5
2019-02-15T10:23:29.369Z,1024.5
2019-02-15T10:24:39.059Z,1024.5
2019-02-15T10:25:47.619Z,1024.5
2019-02-15T10:26:57.290Z,1024.6
2019-02-15T10:28:06.162Z,1024.5
2019-02-15T10:29:16.569Z,1024.5
2019-02-15T10:30:27.390Z,1024.5
2019-02-15T10:31:38.128Z,1024.4
2019-02-15T10:32:47.310Z,1024.4
2019-02-15T10:33:56.332Z,1024.5
2019-02-15T10:35:05.360Z,1024.4
2019-02-15T10:36:15.167Z,1024.4
2019-02-15T10:37:27.707Z,1024.3
2019-02-15T10:38:38.583Z,1024.3
2019-02-15T10:39:47.289Z,1024.3
2019-02-15T10:40:56.891Z,1024.3
2019-02-15T10:42:08.642Z,1024.3
2019-02-15T10:43:17.707Z,1024.3
2019-02-15T10:44:28.390Z,1024.2
2019-02-15T10:45:37.620Z,1024.3
2019-02-15T10:46:48.058Z,1024.2
2019-02-15T10:47:57.518Z,1024.2
2019-02-15T10:49:09.445Z,1024.3
2019-02-15T10:50:18.973Z,1024.3
2019-02-15T10:51:28.756Z,1024.2
2019-02-15T10:52:39.666Z,1024.2
2019-02-15T10:53:50.742Z,1024.2
2019-02-15T10:55:00.429Z,1024.2
2019-02-15T10:56:10.583Z,1024.2
2019-02-15T10:57:20.638Z,1024.2
2019-02-15T10:58:28.665Z,1024.2
2019-02-15T10:59:39.316Z,1024.1
2019-02-15T11:00:48.320Z,1024.2
2019-02-15T11:01:58.073Z,1024.1
2019-02-15T11:03:06.931Z,1024.1
2019-02-15T11:04:15.792Z,1024.2
2019-02-15T11:05:25.791Z,1024.1
2019-02-15T11:06:35.069Z,1024.1
2019-02-15T11:09:21.583Z,1024.1
2019-02-15T11:10:31.920Z,1024.1
2019-02-15T11:11:41.703Z,1024.1
2019-02-15T11:12:51.254Z,1024.1
2019-02-15T11:13:59.548Z,1024.1
2019-02-15T11:15:07.942Z,1024
2019-02-15T11:16:16.786Z,1024.1
2019-02-15T11:17:25.570Z,1024.1
2019-02-15T11:18:34.479Z,1024
2019-02-15T11:19:41.908Z,1024
2019-02-15T11:20:50.710Z,1024
2019-02-15T11:21:56.262Z,1024
2019-02-15T11:22:58.432Z,1024
2019-02-15T11:24:00.743Z,1024
2019-02-15T11:25:03.544Z,1023.9
2019-02-15T11:26:10.933Z,1024
2019-02-15T11:27:28.363Z,1024
2019-02-15T11:28:36.578Z,1023.9
2019-02-15T11:29:44.918Z,1024
2019-02-15T11:30:53.220Z,1024
2019-02-15T11:32:01.368Z,1023.9
2019-02-15T11:33:09.935Z,1024
2019-02-15T11:34:19.789Z,1023.9
2019-02-15T11:35:28.602Z,1024
2019-02-15T11:36:37.431Z,1023.9
2019-02-15T11:37:45.754Z,1023.8
2019-02-15T11:38:54.678Z,1023.9
2019-02-15T11:40:03.410Z,1023.9
2019-02-15T11:41:11.941Z,1023.9
2019-02-15T11:42:21.292Z,1023.9
2019-02-15T11:43:29.866Z,1023.9
2019-02-15T11:44:37.476Z,1023.9
2019-02-15T11:45:45.629Z,1023.9
2019-02-15T11:46:57.000Z,1023.9
2019-02-15T11:47:59.446Z,1023.9
2019-02-15T11:49:02.462Z,1023.9
2019-02-15T11:50:04.620Z,1023.8
2019-02-15T11:51:06.759Z,1023.8
2019-02-15T11:52:08.892Z,1023.8
2019-02-15T11:53:11.091Z,1023.8
2019-02-15T11:54:23.901Z,1023.8
2019-02-15T11:55:26.793Z,1023.8
2019-02-15T11:56:28.974Z,1023.8
2019-02-15T11:57:31.205Z,1023.8
2019-02-15T11:58:33.338Z,1023.8
2019-02-15T11:59:35.555Z,1023.8
2019-02-15T12:00:38.189Z,1023.8
2019-02-15T12:01:40.446Z,1023.8
2019-02-15T12:02:43.161Z,1023.8
2019-02-15T12:03:45.448Z,1023.8
2019-02-15T12:04:48.315Z,1023.7
2019-02-15T12:05:50.458Z,1023.7
2019-02-15T12:06:53.046Z,1023.7
2019-02-15T12:07:55.262Z,1023.7
2019-02-15T12:08:57.820Z,1023.7
2019-02-15T12:09:59.970Z,1023.7
2019-02-15T12:11:02.293Z,1023.6
2019-02-15T12:12:11.165Z,1023.6
2019-02-15T12:13:13.549Z,1023.6
2019-02-15T12:14:16.757Z,1023.6
2019-02-15T12:15:19.834Z,1023.7
2019-02-15T12:16:22.856Z,1023.6
2019-02-15T12:17:25.474Z,1023.7
2019-02-15T12:18:29.759Z,1023.7
2019-02-15T12:19:33.021Z,1023.7
2019-02-15T12:20:36.708Z,1023.6
2019-02-15T12:21:40.088Z,1023.6
2019-02-15T12:22:43.345Z,1023.6
2019-02-15T12:23:46.836Z,1023.6
2019-02-15T12:24:51.992Z,1023.6
2019-02-15T12:25:55.340Z,1023.6
2019-02-15T12:26:59.853Z,1023.6
2019-02-15T12:28:03.957Z,1023.6
2019-02-15T12:29:08.600Z,1023.6
2019-02-15T12:30:12.322Z,1023.5
2019-02-15T12:31:15.845Z,1023.5
2019-02-15T12:32:18.774Z,1023.5
2019-02-15T12:33:22.392Z,1023.5
2019-02-15T12:34:27.089Z,1023.5
2019-02-15T12:35:30.214Z,1023.5
2019-02-15T12:36:33.123Z,1023.5
2019-02-15T12:37:36.882Z,1023.5
2019-02-15T12:38:39.322Z,1023.5
2019-02-15T12:39:41.606Z,1023.5
2019-02-15T12:40:44.351Z,1023.5
2019-02-15T12:41:46.572Z,1023.5
2019-02-15T12:42:49.424Z,1023.5
2019-02-15T12:43:52.486Z,1023.4
2019-02-15T12:44:55.059Z,1023.4
2019-02-15T12:45:57.739Z,1023.3
2019-02-15T12:47:00.013Z,1023.3
2019-02-15T12:48:02.325Z,1023.4
2019-02-15T12:49:04.858Z,1023.3
2019-02-15T12:50:07.727Z,1023.3
2019-02-15T12:51:11.125Z,1023.3
2019-02-15T12:52:13.340Z,1023.3
2019-02-15T12:53:15.813Z,1023.3
2019-02-15T12:54:18.342Z,1023.3
2019-02-15T12:55:20.814Z,1023.3
2019-02-15T12:56:23.555Z,1023.3
2019-02-15T12:57:26.409Z,1023.3
2019-02-15T12:58:28.940Z,1023.3
2019-02-15T12:59:32.288Z,1023.2
2019-02-15T13:00:34.615Z,1023.3
2019-02-15T13:01:36.972Z,1023.3
2019-02-15T13:02:39.268Z,1023.2
2019-02-15T13:03:41.737Z,1023.2
2019-02-15T13:04:44.428Z,1023.2
2019-02-15T13:05:46.693Z,1023.2
2019-02-15T13:06:48.861Z,1023.1
2019-02-15T13:07:51.373Z,1023.1
2019-02-15T13:08:53.725Z,1023.1
2019-02-15T13:09:57.079Z,1023.1
2019-02-15T13:10:59.638Z,1023.1
2019-02-15T13:12:02.133Z,1023.1
2019-02-15T13:13:04.745Z,1023.1
2019-02-15T13:14:07.397Z,1023.1
2019-02-15T13:15:09.526Z,1023
2019-02-15T13:16:12.084Z,1023
2019-02-15T13:17:24.141Z,1023.1
2019-02-15T13:18:27.170Z,1023.1
2019-02-15T13:19:29.761Z,1023
2019-02-15T13:20:32.176Z,1023
2019-02-15T13:21:34.357Z,1023
2019-02-15T13:22:36.500Z,1022.9
2019-02-15T13:23:38.719Z,1023
2019-02-15T13:24:43.041Z,1022.9